createdAt,value
2022-10-26T00:01:28.611Z,17.90
2022-10-26T00:03:40.339Z,17.90
2022-10-26T00:05:45.412Z,18.00
2022-10-26T00:07:51.037Z,17.90
2022-10-26T00:09:55.687Z,17.90
2022-10-26T00:12:07.265Z,17.90
2022-10-26T00:14:11.588Z,17.90
2022-10-26T00:16:29.461Z,17.90
2022-10-26T00:18:31.511Z,17.90
2022-10-26T00:20:38.626Z,17.90
2022-10-26T00:22:45.540Z,18.00
2022-10-26T00:24:50.085Z,18.00
2022-10-26T00:26:51.820Z,18.00
2022-10-26T00:29:00.586Z,18.00
2022-10-26T00:31:17.404Z,18.00
2022-10-26T00:33:29.386Z,18.00
2022-10-26T00:35:46.374Z,17.90
2022-10-26T00:37:54.566Z,18.00
2022-10-26T00:39:58.053Z,17.90
2022-10-26T00:41:59.728Z,18.00
2022-10-26T00:44:39.840Z,18.00
2022-10-26T00:46:41.504Z,18.00
2022-10-26T00:48:44.980Z,18.00
2022-10-26T00:50:47.413Z,18.00
2022-10-26T00:52:50.081Z,18.00
2022-10-26T00:54:52.356Z,18.00
2022-10-26T00:56:54.840Z,18.00
2022-10-26T00:58:57.377Z,17.90
2022-10-26T01:00:59.013Z,18.00
2022-10-26T01:03:01.772Z,18.00
2022-10-26T01:05:04.878Z,18.00
2022-10-26T01:07:07.518Z,17.90
2022-10-26T01:09:10.070Z,17.90
2022-10-26T01:11:12.340Z,17.90
2022-10-26T01:13:15.147Z,17.90
2022-10-26T01:15:16.884Z,17.90
2022-10-26T01:17:27.853Z,17.90
2022-10-26T01:19:51.795Z,18.00
2022-10-26T01:22:02.571Z,17.90
2022-10-26T01:24:27.307Z,17.90
2022-10-26T01:26:47.158Z,18.00
2022-10-26T01:28:54.653Z,17.90
2022-10-26T01:30:58.375Z,18.00
2022-10-26T01:33:07.289Z,17.90
2022-10-26T01:35:11.497Z,18.00
2022-10-26T01:37:20.503Z,18.00
2022-10-26T01:39:22.107Z,18.00
2022-10-26T01:41:34.150Z,18.00
2022-10-26T01:43:38.572Z,18.00
2022-10-26T01:45:42.037Z,18.00
2022-10-26T01:47:44.533Z,18.00
2022-10-26T01:49:54.738Z,18.00
2022-10-26T01:51:56.366Z,18.00
2022-10-26T01:53:58.241Z,18.00
2022-10-26T01:56:01.375Z,18.00
2022-10-26T01:58:10.291Z,18.00
2022-10-26T02:00:12.245Z,18.00
2022-10-26T02:02:32.369Z,18.00
2022-10-26T02:04:39.799Z,18.00
2022-10-26T02:06:56.728Z,18.00
2022-10-26T02:09:02.476Z,18.00
2022-10-26T02:11:19.446Z,18.00
2022-10-26T02:13:39.462Z,18.00
2022-10-26T02:15:49.997Z,18.00
2022-10-26T02:18:08.095Z,18.00
2022-10-26T02:20:13.818Z,18.00
2022-10-26T02:22:26.216Z,18.00
2022-10-26T02:24:28.319Z,18.00
2022-10-26T02:26:31.258Z,18.00
2022-10-26T02:28:36.247Z,18.00
2022-10-26T02:30:39.146Z,18.00
2022-10-26T02:32:42.690Z,18.00
2022-10-26T02:34:45.755Z,18.00
2022-10-26T02:36:49.176Z,18.00
2022-10-26T02:38:51.659Z,18.00
2022-10-26T02:40:54.588Z,18.00
2022-10-26T02:42:58.615Z,18.00
2022-10-26T02:45:02.971Z,18.00
2022-10-26T02:47:04.653Z,18.00
2022-10-26T02:49:06.521Z,18.00
2022-10-26T02:51:14.017Z,18.00
2022-10-26T02:53:24.167Z,18.00
2022-10-26T02:55:28.100Z,18.00
2022-10-26T02:57:40.477Z,18.00
2022-10-26T02:59:43.246Z,18.00
2022-10-26T03:01:45.225Z,18.00
2022-10-26T03:03:47.612Z,18.00
2022-10-26T03:05:49.485Z,18.00
2022-10-26T03:07:51.310Z,18.00
2022-10-26T03:09:52.933Z,18.00
2022-10-26T03:11:54.633Z,18.00
2022-10-26T03:13:56.334Z,18.00
2022-10-26T03:15:58.038Z,18.00
2022-10-26T03:17:59.648Z,18.00
2022-10-26T03:20:01.336Z,18.00
2022-10-26T03:22:02.991Z,18.00
2022-10-26T03:24:04.731Z,18.00
2022-10-26T03:26:06.332Z,18.00
2022-10-26T03:28:09.145Z,18.00
2022-10-26T03:30:11.190Z,18.00
2022-10-26T03:32:12.830Z,18.00
2022-10-26T03:34:14.503Z,18.00
2022-10-26T03:36:16.143Z,18.00
2022-10-26T03:38:17.769Z,18.00
2022-10-26T03:40:19.408Z,18.00
2022-10-26T03:42:21.023Z,18.00
2022-10-26T03:44:22.783Z,18.00
2022-10-26T03:46:24.392Z,18.00
2022-10-26T03:48:26.033Z,18.00
2022-10-26T03:50:27.698Z,18.00
2022-10-26T03:52:29.314Z,18.00
2022-10-26T03:54:30.929Z,18.00
2022-10-26T03:56:32.628Z,18.00
2022-10-26T03:58:34.289Z,18.00
2022-10-26T04:00:35.908Z,18.00
2022-10-26T04:02:37.910Z,18.00
2022-10-26T04:04:39.665Z,18.00
2022-10-26T04:06:41.367Z,18.00
2022-10-26T04:08:43.014Z,18.00
2022-10-26T04:10:45.674Z,18.00
2022-10-26T04:12:47.513Z,18.00
2022-10-26T04:14:49.132Z,18.00
2022-10-26T04:16:50.770Z,18.00
2022-10-26T04:18:52.387Z,18.00
2022-10-26T04:20:54.044Z,18.00
2022-10-26T04:22:59.686Z,18.00
2022-10-26T04:25:01.318Z,18.00
2022-10-26T04:27:02.993Z,18.00
2022-10-26T04:29:06.689Z,18.00
2022-10-26T04:31:08.387Z,18.00
2022-10-26T04:33:10.272Z,18.00
2022-10-26T04:35:14.592Z,18.00
2022-10-26T04:37:17.131Z,18.00
2022-10-26T04:39:18.753Z,18.00
2022-10-26T04:41:20.364Z,18.00
2022-10-26T04:43:22.000Z,18.00
2022-10-26T04:45:23.806Z,18.00
2022-10-26T04:47:25.487Z,18.00
2022-10-26T04:49:27.123Z,18.00
2022-10-26T04:51:31.563Z,18.00
2022-10-26T04:53:33.532Z,18.00
2022-10-26T04:55:35.563Z,18.00
2022-10-26T04:57:37.207Z,18.00
2022-10-26T04:59:38.931Z,18.00
2022-10-26T05:01:40.670Z,18.00
2022-10-26T05:03:42.479Z,18.00
2022-10-26T05:05:44.116Z,18.00
2022-10-26T05:07:53.260Z,18.00
2022-10-26T05:09:54.929Z,18.00
2022-10-26T05:11:56.549Z,18.00
2022-10-26T05:13:58.189Z,17.90
2022-10-26T05:15:59.831Z,18.00
2022-10-26T05:18:09.222Z,17.90
2022-10-26T05:20:13.547Z,17.90
2022-10-26T05:22:15.180Z,17.90
2022-10-26T05:24:16.786Z,17.90
2022-10-26T05:26:18.471Z,17.90
2022-10-26T05:28:20.104Z,17.90
2022-10-26T05:30:21.718Z,17.90
2022-10-26T05:32:23.414Z,17.90
2022-10-26T05:34:25.134Z,17.90
2022-10-26T05:36:26.872Z,17.90
2022-10-26T05:38:28.528Z,17.90
2022-10-26T05:40:30.134Z,17.90
2022-10-26T05:42:31.772Z,17.90
2022-10-26T05:44:33.386Z,17.90
2022-10-26T05:46:35.028Z,17.90
2022-10-26T05:48:36.672Z,17.90
2022-10-26T05:50:38.542Z,17.90
2022-10-26T05:52:44.052Z,17.90
2022-10-26T05:54:45.709Z,17.90
2022-10-26T05:56:47.651Z,17.90
2022-10-26T05:58:49.475Z,17.90
2022-10-26T06:01:08.589Z,17.90
2022-10-26T06:03:16.254Z,17.90
2022-10-26T06:05:22.799Z,17.90
2022-10-26T06:07:24.615Z,17.90
2022-10-26T06:09:26.400Z,17.80
2022-10-26T06:11:28.214Z,17.90
2022-10-26T06:13:29.978Z,17.90
2022-10-26T06:15:36.356Z,17.80
2022-10-26T06:17:53.747Z,17.90
2022-10-26T06:20:02.503Z,17.90
2022-10-26T06:22:36.759Z,17.80
2022-10-26T06:24:38.402Z,17.90
2022-10-26T06:26:50.774Z,17.90
2022-10-26T06:29:01.250Z,17.90
2022-10-26T06:31:03.117Z,17.80
2022-10-26T06:33:06.673Z,17.80
2022-10-26T06:35:32.107Z,17.90
2022-10-26T06:37:35.004Z,17.80
2022-10-26T06:39:37.982Z,17.90
2022-10-26T06:41:39.812Z,17.80
2022-10-26T06:43:41.874Z,17.80
2022-10-26T06:45:48.077Z,17.80
2022-10-26T06:47:54.776Z,17.90
2022-10-26T06:50:05.330Z,17.90
2022-10-26T06:52:13.064Z,17.90
2022-10-26T06:54:27.035Z,17.90
2022-10-26T06:56:29.282Z,17.90
2022-10-26T06:58:33.420Z,17.90
2022-10-26T07:00:35.074Z,17.90
2022-10-26T07:02:36.813Z,17.90
2022-10-26T07:04:38.529Z,17.90
2022-10-26T07:06:40.209Z,17.90
2022-10-26T07:08:41.858Z,17.90
2022-10-26T07:10:43.744Z,17.90
2022-10-26T07:12:45.382Z,17.90
2022-10-26T07:14:47.065Z,17.90
2022-10-26T07:16:48.813Z,17.90
2022-10-26T07:18:50.972Z,17.90
2022-10-26T07:20:52.733Z,17.90
2022-10-26T07:22:55.056Z,17.90
2022-10-26T07:24:59.213Z,18.00
2022-10-26T07:27:04.402Z,18.00
2022-10-26T07:29:06.023Z,18.00
2022-10-26T07:31:07.762Z,18.00
2022-10-26T07:33:13.553Z,18.00
2022-10-26T07:35:15.259Z,18.00
2022-10-26T07:37:16.897Z,18.00
2022-10-26T07:39:18.732Z,18.10
2022-10-26T07:41:20.701Z,18.10
2022-10-26T07:43:22.411Z,18.10
2022-10-26T07:45:24.257Z,18.10
2022-10-26T07:47:25.895Z,18.10
2022-10-26T07:49:27.977Z,18.10
2022-10-26T07:51:29.707Z,18.20
2022-10-26T07:53:31.356Z,18.20
2022-10-26T07:55:33.014Z,18.20
2022-10-26T07:57:35.004Z,18.20
2022-10-26T07:59:36.882Z,18.30
2022-10-26T08:01:38.673Z,18.30
2022-10-26T08:03:40.879Z,18.30
2022-10-26T08:05:42.538Z,18.30
2022-10-26T08:07:44.812Z,18.30
2022-10-26T08:09:46.476Z,18.40
2022-10-26T08:11:48.167Z,18.40
2022-10-26T08:13:51.862Z,18.40
2022-10-26T08:15:57.223Z,18.40
2022-10-26T08:17:58.927Z,18.50
2022-10-26T08:20:00.585Z,18.40
2022-10-26T08:22:02.226Z,18.50
2022-10-26T08:24:04.181Z,18.50
2022-10-26T08:26:11.301Z,18.50
2022-10-26T08:28:54.373Z,18.50
2022-10-26T08:31:19.972Z,18.60
2022-10-26T08:33:54.937Z,18.60
2022-10-26T08:36:12.228Z,18.60
2022-10-26T08:38:20.566Z,18.60
2022-10-26T08:40:51.748Z,18.70
2022-10-26T08:42:58.233Z,18.70
2022-10-26T08:45:27.571Z,18.70
2022-10-26T08:47:42.864Z,18.70
2022-10-26T08:50:43.082Z,18.80
2022-10-26T08:52:56.355Z,18.80
2022-10-26T08:55:03.554Z,18.90
2022-10-26T08:57:30.453Z,18.90
2022-10-26T08:59:42.178Z,18.90
2022-10-26T09:01:54.182Z,18.90
2022-10-26T09:04:08.224Z,19.00
2022-10-26T09:09:20.278Z,19.10
2022-10-26T09:11:57.587Z,19.10
2022-10-26T09:14:09.407Z,19.10
2022-10-26T09:16:26.236Z,19.10
2022-10-26T09:19:01.932Z,19.10
2022-10-26T09:21:04.917Z,19.20
2022-10-26T09:23:36.060Z,19.20
2022-10-26T09:25:49.738Z,19.30
2022-10-26T09:27:57.820Z,19.30
2022-10-26T09:30:53.867Z,19.40
2022-10-26T09:32:36.811Z,19.40
2022-10-26T09:34:59.062Z,19.50
2022-10-26T09:37:23.072Z,19.50
2022-10-26T09:39:53.737Z,19.50
2022-10-26T09:42:41.584Z,19.70
2022-10-26T09:45:06.721Z,19.70
2022-10-26T09:47:14.492Z,19.80
2022-10-26T09:50:04.855Z,19.80
2022-10-26T09:54:43.360Z,19.90
2022-10-26T09:56:53.537Z,20.00
2022-10-26T09:59:07.764Z,20.00
2022-10-26T10:01:41.607Z,20.10
2022-10-26T10:04:26.920Z,20.10
2022-10-26T10:06:41.949Z,20.20
2022-10-26T10:09:08.630Z,20.20
2022-10-26T10:11:18.856Z,20.20
2022-10-26T10:13:27.594Z,20.30
2022-10-26T10:15:42.531Z,20.40
2022-10-26T10:17:57.234Z,20.40
2022-10-26T10:20:22.263Z,20.50
2022-10-26T10:22:34.693Z,20.60
2022-10-26T10:25:02.688Z,20.70
2022-10-26T10:27:18.272Z,20.80
2022-10-26T10:29:34.025Z,20.90
2022-10-26T10:31:35.861Z,21.00
2022-10-26T10:33:47.985Z,21.00
2022-10-26T10:36:06.647Z,21.10
2022-10-26T10:38:20.537Z,21.20
2022-10-26T10:40:31.443Z,21.20
2022-10-26T10:42:43.323Z,21.30
2022-10-26T10:44:49.716Z,21.30
2022-10-26T10:46:59.598Z,21.40
2022-10-26T10:49:04.272Z,21.40
2022-10-26T10:51:25.585Z,21.50
2022-10-26T10:53:30.046Z,21.50
2022-10-26T10:55:34.893Z,21.70
2022-10-26T10:57:56.802Z,21.70
2022-10-26T11:00:01.478Z,21.80
2022-10-26T11:02:06.347Z,21.90
2022-10-26T11:04:26.712Z,22.00
2022-10-26T11:06:29.103Z,22.10
2022-10-26T11:08:35.395Z,22.20
2022-10-26T11:10:38.394Z,22.30
2022-10-26T11:12:44.472Z,22.30
2022-10-26T11:14:49.633Z,22.40
2022-10-26T11:17:09.036Z,22.50
2022-10-26T11:19:16.538Z,22.60
2022-10-26T11:21:28.889Z,22.70
2022-10-26T11:23:34.658Z,22.80
2022-10-26T11:25:36.372Z,22.90
2022-10-26T11:27:51.017Z,22.90
2022-10-26T11:30:11.561Z,23.00
2022-10-26T11:32:22.556Z,23.00
2022-10-26T11:34:43.787Z,23.00
2022-10-26T11:36:49.177Z,23.00
2022-10-26T11:38:57.077Z,23.00
2022-10-26T11:41:17.392Z,23.00
2022-10-26T11:43:24.395Z,23.00
2022-10-26T11:45:28.705Z,23.00
2022-10-26T11:47:36.542Z,22.90
2022-10-26T11:49:42.131Z,22.90
2022-10-26T11:51:46.419Z,22.90
2022-10-26T11:53:48.948Z,22.90
2022-10-26T11:55:54.524Z,22.80
2022-10-26T11:57:57.622Z,22.80
2022-10-26T12:00:03.928Z,22.80
2022-10-26T12:02:13.028Z,22.80
2022-10-26T12:04:15.003Z,22.80
2022-10-26T12:06:20.225Z,22.80
2022-10-26T12:08:23.161Z,22.80
2022-10-26T12:10:29.589Z,22.80
2022-10-26T12:12:50.225Z,22.80
2022-10-26T12:15:01.155Z,22.70
2022-10-26T12:17:08.354Z,22.80
2022-10-26T12:19:18.227Z,22.70
2022-10-26T12:21:20.078Z,22.70
2022-10-26T12:23:33.978Z,22.70
2022-10-26T12:25:42.727Z,22.70
2022-10-26T12:27:44.418Z,22.70
2022-10-26T12:29:47.068Z,22.70
2022-10-26T12:31:48.775Z,22.60
2022-10-26T12:33:50.816Z,22.60
2022-10-26T12:35:52.486Z,22.60
2022-10-26T12:37:54.193Z,22.60
2022-10-26T12:40:15.884Z,22.60
2022-10-26T12:42:17.486Z,22.60
2022-10-26T12:44:42.253Z,22.60
2022-10-26T12:46:44.971Z,22.60
2022-10-26T12:48:50.401Z,22.60
2022-10-26T12:50:52.348Z,22.60
2022-10-26T12:53:05.876Z,22.60
2022-10-26T12:55:16.682Z,22.60
2022-10-26T12:57:26.357Z,22.60
2022-10-26T12:59:28.000Z,22.60
2022-10-26T13:01:46.903Z,22.60
2022-10-26T13:03:54.567Z,22.70
2022-10-26T13:05:59.299Z,22.70
2022-10-26T13:08:02.555Z,22.80
2022-10-26T13:10:04.172Z,22.80
2022-10-26T13:12:05.957Z,22.80
2022-10-26T13:14:18.004Z,22.90
2022-10-26T13:16:19.708Z,22.90
2022-10-26T13:18:22.462Z,23.00
2022-10-26T13:20:24.198Z,23.00
2022-10-26T13:22:26.381Z,23.10
2022-10-26T13:24:30.434Z,23.10
2022-10-26T13:26:33.096Z,23.10
2022-10-26T13:28:37.695Z,23.10
2022-10-26T13:30:44.298Z,23.10
2022-10-26T13:33:08.069Z,23.20
2022-10-26T13:35:13.744Z,23.20
2022-10-26T13:37:23.314Z,23.20
2022-10-26T13:39:31.106Z,23.20
2022-10-26T13:41:34.165Z,23.30
2022-10-26T13:43:36.890Z,23.30
2022-10-26T13:45:46.361Z,23.30
2022-10-26T13:47:52.559Z,23.30
2022-10-26T13:49:55.589Z,23.30
2022-10-26T13:52:00.189Z,23.30
2022-10-26T13:54:03.237Z,23.30
2022-10-26T13:56:08.029Z,23.30
2022-10-26T13:58:09.670Z,23.30
2022-10-26T14:00:19.774Z,23.40
2022-10-26T14:02:30.271Z,23.40
2022-10-26T14:04:31.947Z,23.40
2022-10-26T14:06:35.961Z,23.50
2022-10-26T14:08:40.484Z,23.50
2022-10-26T14:10:45.724Z,23.50
2022-10-26T14:12:47.643Z,23.60
2022-10-26T14:14:49.958Z,23.70
2022-10-26T14:16:52.451Z,23.70
2022-10-26T14:18:54.102Z,23.80
2022-10-26T14:21:02.866Z,23.80
2022-10-26T14:23:04.494Z,23.90
2022-10-26T14:25:20.957Z,23.90
2022-10-26T14:27:32.646Z,24.00
2022-10-26T14:29:37.667Z,24.00
2022-10-26T14:31:39.313Z,24.10
2022-10-26T14:33:41.039Z,24.10
2022-10-26T14:35:42.855Z,24.10
2022-10-26T14:38:01.597Z,24.20
2022-10-26T14:40:04.043Z,24.20
2022-10-26T14:42:15.709Z,24.30
2022-10-26T14:44:20.007Z,24.30
2022-10-26T14:46:21.711Z,24.40
2022-10-26T14:48:30.809Z,24.40
2022-10-26T14:50:34.434Z,24.50
2022-10-26T14:52:36.489Z,24.50
2022-10-26T14:54:38.178Z,24.50
2022-10-26T14:56:40.908Z,24.50
2022-10-26T14:58:42.811Z,24.50
2022-10-26T15:00:44.804Z,24.40
2022-10-26T15:02:50.984Z,24.40
2022-10-26T15:05:03.164Z,24.30
2022-10-26T15:07:20.210Z,24.30
2022-10-26T15:09:32.809Z,24.20
2022-10-26T15:11:35.394Z,24.10
2022-10-26T15:13:40.539Z,24.00
2022-10-26T15:15:44.566Z,24.00
2022-10-26T15:17:56.887Z,23.90
2022-10-26T15:20:02.692Z,23.80
2022-10-26T15:22:04.496Z,23.80
2022-10-26T15:24:21.023Z,23.70
2022-10-26T15:26:23.101Z,23.60
2022-10-26T15:28:24.922Z,23.50
2022-10-26T15:30:27.492Z,23.50
2022-10-26T15:32:32.583Z,23.40
2022-10-26T15:34:34.344Z,23.30
2022-10-26T15:36:36.367Z,23.20
2022-10-26T15:38:38.083Z,23.20
2022-10-26T15:40:43.616Z,23.10
2022-10-26T15:42:47.424Z,23.00
2022-10-26T15:44:51.999Z,23.00
2022-10-26T15:47:02.893Z,22.90
2022-10-26T15:49:07.553Z,22.80
2022-10-26T15:51:13.676Z,22.80
2022-10-26T15:53:18.010Z,22.80
2022-10-26T15:55:19.665Z,22.70
2022-10-26T15:57:21.649Z,22.60
2022-10-26T15:59:23.402Z,22.60
2022-10-26T16:01:26.438Z,22.50
2022-10-26T16:03:28.385Z,22.50
2022-10-26T16:07:33.353Z,22.30
2022-10-26T16:09:37.847Z,22.30
2022-10-26T16:11:39.560Z,22.30
2022-10-26T16:13:41.433Z,22.20
2022-10-26T16:15:43.448Z,22.10
2022-10-26T16:17:45.781Z,22.10
2022-10-26T16:19:47.627Z,22.00
2022-10-26T16:21:52.367Z,22.00
2022-10-26T16:23:55.324Z,21.90
2022-10-26T16:25:57.341Z,21.90
2022-10-26T16:27:59.098Z,21.90
2022-10-26T16:30:00.776Z,21.80
2022-10-26T16:32:02.442Z,21.80
2022-10-26T16:34:04.449Z,21.70
2022-10-26T16:36:06.859Z,21.70
2022-10-26T16:38:08.613Z,21.60
2022-10-26T16:40:10.492Z,21.60
2022-10-26T16:42:12.177Z,21.50
2022-10-26T16:44:13.950Z,21.50
2022-10-26T16:46:19.752Z,21.50
2022-10-26T16:52:47.328Z,21.40
2022-10-26T17:01:09.996Z,21.20
2022-10-26T17:03:15.397Z,21.10
2022-10-26T17:05:21.097Z,21.10
2022-10-26T17:07:22.842Z,21.10
2022-10-26T17:09:24.575Z,21.10
2022-10-26T17:11:26.279Z,21.00
2022-10-26T17:13:28.046Z,21.00
2022-10-26T17:15:29.713Z,21.00
2022-10-26T17:17:31.528Z,20.90
2022-10-26T17:19:33.289Z,20.90
2022-10-26T17:21:35.324Z,20.90
2022-10-26T17:23:37.119Z,20.80
2022-10-26T17:25:38.906Z,20.80
2022-10-26T17:27:44.907Z,20.70
2022-10-26T17:29:49.199Z,20.70
2022-10-26T17:31:51.014Z,20.70
2022-10-26T17:33:52.706Z,20.60
2022-10-26T17:35:54.482Z,20.60
2022-10-26T17:37:56.311Z,20.60
2022-10-26T17:39:58.129Z,20.50
2022-10-26T17:41:59.827Z,20.50
2022-10-26T17:44:01.571Z,20.50
2022-10-26T17:46:05.722Z,20.50
2022-10-26T17:48:07.499Z,20.40
2022-10-26T17:50:09.742Z,20.40
2022-10-26T17:52:11.757Z,20.40
2022-10-26T17:54:13.582Z,20.40
2022-10-26T17:56:19.672Z,20.40
2022-10-26T17:58:21.452Z,20.40
2022-10-26T18:00:26.066Z,20.30
2022-10-26T18:02:27.999Z,20.30
2022-10-26T18:04:29.956Z,20.30
2022-10-26T18:06:31.734Z,20.30
2022-10-26T18:08:37.184Z,20.20
2022-10-26T18:10:38.910Z,20.20
2022-10-26T18:12:40.713Z,20.20
2022-10-26T18:14:42.554Z,20.20
2022-10-26T18:16:46.943Z,20.20
2022-10-26T18:18:52.465Z,20.20
2022-10-26T18:20:59.797Z,20.20
2022-10-26T18:23:01.846Z,20.20
2022-10-26T18:25:03.958Z,20.20
2022-10-26T18:27:05.924Z,20.10
2022-10-26T18:29:07.679Z,20.10
2022-10-26T18:31:11.366Z,20.10
2022-10-26T18:33:13.121Z,20.10
2022-10-26T18:35:15.007Z,20.10
2022-10-26T18:37:16.716Z,20.00
2022-10-26T18:39:18.592Z,20.00
2022-10-26T18:41:21.253Z,20.00
2022-10-26T18:43:23.111Z,20.00
2022-10-26T18:45:25.090Z,20.00
2022-10-26T18:47:28.773Z,20.00
2022-10-26T18:49:30.584Z,20.00
2022-10-26T18:51:33.873Z,20.00
2022-10-26T18:53:36.971Z,19.90
2022-10-26T18:55:46.045Z,19.90
2022-10-26T18:57:52.209Z,19.90
2022-10-26T18:59:55.204Z,19.90
2022-10-26T19:01:57.281Z,19.90
2022-10-26T19:04:00.193Z,19.90
2022-10-26T19:06:28.230Z,19.90
2022-10-26T19:08:30.102Z,19.80
2022-10-26T19:12:37.005Z,19.80
2022-10-26T19:14:39.575Z,19.80
2022-10-26T19:16:46.743Z,19.80
2022-10-26T19:18:49.716Z,19.80
2022-10-26T19:20:57.098Z,19.80
2022-10-26T19:22:58.888Z,19.80
2022-10-26T19:25:09.086Z,19.80
2022-10-26T19:27:14.415Z,19.70
2022-10-26T19:29:16.935Z,19.70
2022-10-26T19:31:20.725Z,19.70
2022-10-26T19:33:26.009Z,19.70
2022-10-26T19:35:27.725Z,19.70
2022-10-26T19:43:35.842Z,19.60
2022-10-26T19:45:38.822Z,19.60
2022-10-26T19:47:40.656Z,19.60
2022-10-26T19:49:42.751Z,19.60
2022-10-26T19:51:44.599Z,19.60
2022-10-26T19:53:46.528Z,19.50
2022-10-26T19:55:55.539Z,19.50
2022-10-26T19:57:57.309Z,19.50
2022-10-26T19:59:59.173Z,19.50
2022-10-26T20:02:01.172Z,19.50
2022-10-26T20:04:04.217Z,19.50
2022-10-26T20:06:08.473Z,19.50
2022-10-26T20:08:10.528Z,19.50
2022-10-26T20:10:12.292Z,19.50
2022-10-26T20:12:14.448Z,19.50
2022-10-26T20:14:16.299Z,19.40
2022-10-26T20:16:18.020Z,19.40
2022-10-26T20:18:20.063Z,19.40
2022-10-26T20:20:21.789Z,19.40
2022-10-26T20:22:24.065Z,19.40
2022-10-26T20:24:25.832Z,19.40
2022-10-26T20:26:28.534Z,19.30
2022-10-26T20:28:30.591Z,19.30
2022-10-26T20:30:35.355Z,19.30
2022-10-26T20:32:37.124Z,19.30
2022-10-26T20:34:41.356Z,19.30
2022-10-26T20:36:45.682Z,19.30
2022-10-26T20:38:47.532Z,19.30
2022-10-26T20:40:53.314Z,19.30
2022-10-26T20:42:55.309Z,19.30
2022-10-26T20:45:16.606Z,19.30
2022-10-26T20:47:18.497Z,19.30
2022-10-26T20:49:20.463Z,19.20
2022-10-26T20:51:31.461Z,19.20
2022-10-26T20:53:39.989Z,19.20
2022-10-26T20:55:49.779Z,19.20
2022-10-26T20:57:56.399Z,19.20
2022-10-26T21:00:07.406Z,19.20
2022-10-26T21:02:09.814Z,19.10
2022-10-26T21:04:11.606Z,19.10
2022-10-26T21:06:13.292Z,19.10
2022-10-26T21:08:15.124Z,19.10
2022-10-26T21:10:16.880Z,19.10
2022-10-26T21:12:18.632Z,19.20
2022-10-26T21:14:20.322Z,19.10
2022-10-26T21:18:23.651Z,19.10
2022-10-26T21:20:25.363Z,19.10
2022-10-26T21:22:27.977Z,19.10
2022-10-26T21:24:30.255Z,19.00
2022-10-26T21:26:32.038Z,19.00
2022-10-26T21:28:35.372Z,19.00
2022-10-26T21:30:37.139Z,19.00
2022-10-26T21:32:38.839Z,18.90
2022-10-26T21:34:40.536Z,18.90
2022-10-26T21:36:42.256Z,18.90
2022-10-26T21:38:44.758Z,18.90
2022-10-26T21:40:46.479Z,18.90
2022-10-26T21:42:51.451Z,18.90
2022-10-26T21:44:53.433Z,18.90
2022-10-26T21:46:55.173Z,18.90
2022-10-26T21:48:56.951Z,18.80
2022-10-26T21:51:00.836Z,18.80
2022-10-26T21:53:02.564Z,18.80
2022-10-26T21:55:04.402Z,18.80
2022-10-26T21:57:06.111Z,18.80
2022-10-26T21:59:07.875Z,18.80
2022-10-26T22:01:20.578Z,18.80
2022-10-26T22:03:22.362Z,18.70
2022-10-26T22:05:24.050Z,18.70
2022-10-26T22:07:25.812Z,18.70
2022-10-26T22:09:27.612Z,18.70
2022-10-26T22:11:29.333Z,18.70
2022-10-26T22:13:31.069Z,18.70
2022-10-26T22:15:32.837Z,18.70
2022-10-26T22:17:38.707Z,18.70
2022-10-26T22:19:40.363Z,18.60
2022-10-26T22:21:42.206Z,18.60
2022-10-26T22:23:44.410Z,18.60
2022-10-26T22:25:46.113Z,18.60
2022-10-26T22:27:48.025Z,18.60
2022-10-26T22:29:49.891Z,18.60
2022-10-26T22:31:51.713Z,18.60
2022-10-26T22:33:57.281Z,18.60
2022-10-26T22:36:09.499Z,18.60
2022-10-26T22:38:11.155Z,18.50
2022-10-26T22:40:12.797Z,18.60
2022-10-26T22:42:14.443Z,18.50
2022-10-26T22:44:16.056Z,18.50
2022-10-26T22:46:21.873Z,18.60
2022-10-26T22:48:23.533Z,18.50
2022-10-26T22:50:25.182Z,18.50
2022-10-26T22:52:26.813Z,18.50
2022-10-26T22:54:28.460Z,18.50
2022-10-26T22:56:31.295Z,18.50
2022-10-26T22:58:34.015Z,18.50
2022-10-26T23:00:37.603Z,18.40
2022-10-26T23:02:39.235Z,18.50
2022-10-26T23:04:40.998Z,18.40
2022-10-26T23:06:42.677Z,18.40
2022-10-26T23:08:44.701Z,18.40
2022-10-26T23:10:46.347Z,18.40
2022-10-26T23:12:51.228Z,18.40
2022-10-26T23:14:52.897Z,18.40
2022-10-26T23:16:54.527Z,18.40
2022-10-26T23:18:56.362Z,18.40
2022-10-26T23:20:58.413Z,18.40
2022-10-26T23:23:00.221Z,18.30
2022-10-26T23:25:01.961Z,18.40
2022-10-26T23:27:03.679Z,18.30
2022-10-26T23:29:05.889Z,18.30
2022-10-26T23:31:08.589Z,18.30
2022-10-26T23:33:10.254Z,18.30
2022-10-26T23:35:12.858Z,18.30
2022-10-26T23:37:14.927Z,18.30
2022-10-26T23:39:16.555Z,18.30
2022-10-26T23:41:18.202Z,18.30
2022-10-26T23:43:20.143Z,18.20
2022-10-26T23:45:22.070Z,18.30
2022-10-26T23:47:24.647Z,18.30
2022-10-26T23:49:26.292Z,18.20
2022-10-26T23:51:27.908Z,18.20
2022-10-26T23:53:29.555Z,18.20
2022-10-26T23:55:31.209Z,18.20
2022-10-26T23:57:32.902Z,18.20
2022-10-26T23:59:34.569Z,18.20
